sensor_id;sensor_type;location;lat;lon;timestamp;temperature;humidity
68485;DHT22;55472;50.060;21.960;2022-07-23T00:02:06;23.30;70.70
68485;DHT22;55472;50.060;21.960;2022-07-23T00:04:33;23.30;70.70
68485;DHT22;55472;50.060;21.960;2022-07-23T00:06:59;23.30;70.70
68485;DHT22;55472;50.060;21.960;2022-07-23T00:09:25;23.30;70.70
68485;DHT22;55472;50.060;21.960;2022-07-23T00:11:54;23.30;70.60
68485;DHT22;55472;50.060;21.960;2022-07-23T00:14:20;23.30;70.60
68485;DHT22;55472;50.060;21.960;2022-07-23T00:16:46;23.20;70.50
68485;DHT22;55472;50.060;21.960;2022-07-23T00:19:11;23.20;70.90
68485;DHT22;55472;50.060;21.960;2022-07-23T00:21:37;23.10;70.80
68485;DHT22;55472;50.060;21.960;2022-07-23T00:24:04;23.10;70.80
68485;DHT22;55472;50.060;21.960;2022-07-23T00:26:30;23.00;70.80
68485;DHT22;55472;50.060;21.960;2022-07-23T00:28:56;23.00;71.20
68485;DHT22;55472;50.060;21.960;2022-07-23T00:31:22;22.90;71.50
68485;DHT22;55472;50.060;21.960;2022-07-23T00:33:48;22.90;71.60
68485;DHT22;55472;50.060;21.960;2022-07-23T00:36:13;22.90;71.70
68485;DHT22;55472;50.060;21.960;2022-07-23T00:38:39;22.90;71.60
68485;DHT22;55472;50.060;21.960;2022-07-23T00:41:05;22.80;71.80
68485;DHT22;55472;50.060;21.960;2022-07-23T00:43:31;22.70;71.70
68485;DHT22;55472;50.060;21.960;2022-07-23T00:46:00;22.70;71.70
68485;DHT22;55472;50.060;21.960;2022-07-23T00:48:25;22.60;71.90
68485;DHT22;55472;50.060;21.960;2022-07-23T00:50:51;22.50;72.00
68485;DHT22;55472;50.060;21.960;2022-07-23T00:53:19;22.50;72.10
68485;DHT22;55472;50.060;21.960;2022-07-23T00:55:45;22.40;72.40
68485;DHT22;55472;50.060;21.960;2022-07-23T00:58:12;22.30;72.80
68485;DHT22;55472;50.060;21.960;2022-07-23T01:00:39;22.30;72.90
68485;DHT22;55472;50.060;21.960;2022-07-23T01:03:05;22.30;73.00
68485;DHT22;55472;50.060;21.960;2022-07-23T01:05:30;22.30;72.80
68485;DHT22;55472;50.060;21.960;2022-07-23T01:07:56;22.30;72.90
68485;DHT22;55472;50.060;21.960;2022-07-23T01:10:23;22.30;72.70
68485;DHT22;55472;50.060;21.960;2022-07-23T01:13:04;22.30;72.90
68485;DHT22;55472;50.060;21.960;2022-07-23T01:15:34;22.30;72.80
68485;DHT22;55472;50.060;21.960;2022-07-23T01:18:03;22.40;72.60
68485;DHT22;55472;50.060;21.960;2022-07-23T01:20:30;22.30;72.80
68485;DHT22;55472;50.060;21.960;2022-07-23T01:22:56;22.40;72.90
68485;DHT22;55472;50.060;21.960;2022-07-23T01:25:23;22.40;72.50
68485;DHT22;55472;50.060;21.960;2022-07-23T01:27:49;22.30;72.70
68485;DHT22;55472;50.060;21.960;2022-07-23T01:30:17;22.40;72.60
68485;DHT22;55472;50.060;21.960;2022-07-23T01:32:43;22.40;72.60
68485;DHT22;55472;50.060;21.960;2022-07-23T01:35:10;22.40;72.50
68485;DHT22;55472;50.060;21.960;2022-07-23T01:37:37;22.40;72.60
68485;DHT22;55472;50.060;21.960;2022-07-23T01:40:04;22.40;72.40
68485;DHT22;55472;50.060;21.960;2022-07-23T01:42:31;22.40;72.50
68485;DHT22;55472;50.060;21.960;2022-07-23T01:44:57;22.30;72.70
68485;DHT22;55472;50.060;21.960;2022-07-23T01:47:23;22.30;72.50
68485;DHT22;55472;50.060;21.960;2022-07-23T01:49:49;22.30;72.70
68485;DHT22;55472;50.060;21.960;2022-07-23T01:52:15;22.30;73.00
68485;DHT22;55472;50.060;21.960;2022-07-23T01:54:42;22.20;72.70
68485;DHT22;55472;50.060;21.960;2022-07-23T01:57:08;22.30;72.50
68485;DHT22;55472;50.060;21.960;2022-07-23T01:59:34;22.20;72.20
68485;DHT22;55472;50.060;21.960;2022-07-23T02:02:01;22.20;72.70
68485;DHT22;55472;50.060;21.960;2022-07-23T02:04:29;22.20;72.70
68485;DHT22;55472;50.060;21.960;2022-07-23T02:06:54;22.20;72.70
68485;DHT22;55472;50.060;21.960;2022-07-23T02:09:20;22.20;72.60
68485;DHT22;55472;50.060;21.960;2022-07-23T02:11:46;22.20;72.60
68485;DHT22;55472;50.060;21.960;2022-07-23T02:14:12;22.20;72.60
68485;DHT22;55472;50.060;21.960;2022-07-23T02:16:39;22.10;72.70
68485;DHT22;55472;50.060;21.960;2022-07-23T02:19:05;22.10;72.70
68485;DHT22;55472;50.060;21.960;2022-07-23T02:21:30;22.10;72.70
68485;DHT22;55472;50.060;21.960;2022-07-23T02:23:56;22.00;73.00
68485;DHT22;55472;50.060;21.960;2022-07-23T02:26:22;22.00;73.00
68485;DHT22;55472;50.060;21.960;2022-07-23T02:28:48;21.90;73.10
68485;DHT22;55472;50.060;21.960;2022-07-23T02:31:14;21.90;73.30
68485;DHT22;55472;50.060;21.960;2022-07-23T02:33:40;21.90;73.10
68485;DHT22;55472;50.060;21.960;2022-07-23T02:36:06;21.90;73.00
68485;DHT22;55472;50.060;21.960;2022-07-23T02:38:32;21.90;73.10
68485;DHT22;55472;50.060;21.960;2022-07-23T02:40:58;21.90;73.00
68485;DHT22;55472;50.060;21.960;2022-07-23T02:43:24;21.90;73.10
68485;DHT22;55472;50.060;21.960;2022-07-23T02:45:50;21.90;73.00
68485;DHT22;55472;50.060;21.960;2022-07-23T02:48:16;21.90;72.90
68485;DHT22;55472;50.060;21.960;2022-07-23T02:50:41;21.80;73.10
68485;DHT22;55472;50.060;21.960;2022-07-23T02:53:08;21.80;73.30
68485;DHT22;55472;50.060;21.960;2022-07-23T02:55:33;21.80;73.30
68485;DHT22;55472;50.060;21.960;2022-07-23T02:57:59;21.70;73.50
68485;DHT22;55472;50.060;21.960;2022-07-23T03:00:25;21.60;73.40
68485;DHT22;55472;50.060;21.960;2022-07-23T03:02:51;21.60;73.60
68485;DHT22;55472;50.060;21.960;2022-07-23T03:05:17;21.60;74.00
68485;DHT22;55472;50.060;21.960;2022-07-23T03:07:43;21.60;73.80
68485;DHT22;55472;50.060;21.960;2022-07-23T03:10:09;21.60;73.40
68485;DHT22;55472;50.060;21.960;2022-07-23T03:12:35;21.60;73.40
68485;DHT22;55472;50.060;21.960;2022-07-23T03:15:01;21.60;72.90
68485;DHT22;55472;50.060;21.960;2022-07-23T03:17:27;21.60;73.10
68485;DHT22;55472;50.060;21.960;2022-07-23T03:19:53;21.50;72.70
68485;DHT22;55472;50.060;21.960;2022-07-23T03:22:19;21.50;73.10
68485;DHT22;55472;50.060;21.960;2022-07-23T03:24:44;21.40;73.60
68485;DHT22;55472;50.060;21.960;2022-07-23T03:27:26;21.50;73.60
68485;DHT22;55472;50.060;21.960;2022-07-23T03:29:55;21.50;73.70
68485;DHT22;55472;50.060;21.960;2022-07-23T03:32:23;21.50;73.60
68485;DHT22;55472;50.060;21.960;2022-07-23T03:34:49;21.50;73.70
68485;DHT22;55472;50.060;21.960;2022-07-23T03:37:17;21.50;73.50
68485;DHT22;55472;50.060;21.960;2022-07-23T03:39:43;21.50;73.10
68485;DHT22;55472;50.060;21.960;2022-07-23T03:42:09;21.50;72.90
68485;DHT22;55472;50.060;21.960;2022-07-23T03:44:36;21.50;73.60
68485;DHT22;55472;50.060;21.960;2022-07-23T03:47:06;21.50;72.70
68485;DHT22;55472;50.060;21.960;2022-07-23T03:49:32;21.40;73.20
68485;DHT22;55472;50.060;21.960;2022-07-23T03:51:58;21.40;73.30
68485;DHT22;55472;50.060;21.960;2022-07-23T03:54:24;21.40;73.50
68485;DHT22;55472;50.060;21.960;2022-07-23T03:56:50;21.40;73.30
68485;DHT22;55472;50.060;21.960;2022-07-23T03:59:16;21.40;73.90
68485;DHT22;55472;50.060;21.960;2022-07-23T04:01:42;21.40;73.70
68485;DHT22;55472;50.060;21.960;2022-07-23T04:04:08;21.50;73.50
68485;DHT22;55472;50.060;21.960;2022-07-23T04:06:35;21.50;73.70
68485;DHT22;55472;50.060;21.960;2022-07-23T04:09:01;21.50;73.90
68485;DHT22;55472;50.060;21.960;2022-07-23T04:11:27;21.60;73.70
68485;DHT22;55472;50.060;21.960;2022-07-23T04:13:53;21.60;73.90
68485;DHT22;55472;50.060;21.960;2022-07-23T04:16:19;21.60;74.70
68485;DHT22;55472;50.060;21.960;2022-07-23T04:18:45;21.70;74.30
68485;DHT22;55472;50.060;21.960;2022-07-23T04:21:11;21.70;74.10
68485;DHT22;55472;50.060;21.960;2022-07-23T04:23:37;21.70;74.40
68485;DHT22;55472;50.060;21.960;2022-07-23T04:26:03;21.70;74.60
68485;DHT22;55472;50.060;21.960;2022-07-23T04:28:29;21.80;74.60
68485;DHT22;55472;50.060;21.960;2022-07-23T04:30:58;21.80;74.60
68485;DHT22;55472;50.060;21.960;2022-07-23T04:33:24;21.80;74.40
68485;DHT22;55472;50.060;21.960;2022-07-23T04:35:50;21.80;74.30
68485;DHT22;55472;50.060;21.960;2022-07-23T04:38:16;21.90;74.50
68485;DHT22;55472;50.060;21.960;2022-07-23T04:40:42;21.90;74.80
68485;DHT22;55472;50.060;21.960;2022-07-23T04:43:08;21.90;74.10
68485;DHT22;55472;50.060;21.960;2022-07-23T04:45:34;21.90;74.00
68485;DHT22;55472;50.060;21.960;2022-07-23T04:48:00;22.00;74.30
68485;DHT22;55472;50.060;21.960;2022-07-23T04:50:26;22.00;74.40
68485;DHT22;55472;50.060;21.960;2022-07-23T04:52:52;22.00;73.80
68485;DHT22;55472;50.060;21.960;2022-07-23T04:55:18;22.10;73.10
68485;DHT22;55472;50.060;21.960;2022-07-23T04:57:44;22.20;72.60
68485;DHT22;55472;50.060;21.960;2022-07-23T05:00:11;22.20;72.90
68485;DHT22;55472;50.060;21.960;2022-07-23T05:02:43;22.20;72.80
68485;DHT22;55472;50.060;21.960;2022-07-23T05:05:12;22.30;71.90
68485;DHT22;55472;50.060;21.960;2022-07-23T05:07:38;22.50;72.30
68485;DHT22;55472;50.060;21.960;2022-07-23T05:10:04;22.60;72.30
68485;DHT22;55472;50.060;21.960;2022-07-23T05:12:30;22.70;72.00
68485;DHT22;55472;50.060;21.960;2022-07-23T05:14:56;22.90;71.80
68485;DHT22;55472;50.060;21.960;2022-07-23T05:17:22;22.90;71.40
68485;DHT22;55472;50.060;21.960;2022-07-23T05:19:48;23.10;70.60
68485;DHT22;55472;50.060;21.960;2022-07-23T05:22:14;23.10;70.70
68485;DHT22;55472;50.060;21.960;2022-07-23T05:24:40;23.20;70.50
68485;DHT22;55472;50.060;21.960;2022-07-23T05:27:06;23.30;69.70
68485;DHT22;55472;50.060;21.960;2022-07-23T05:29:32;23.50;69.60
68485;DHT22;55472;50.060;21.960;2022-07-23T05:31:57;23.60;69.50
68485;DHT22;55472;50.060;21.960;2022-07-23T05:34:23;23.70;69.80
68485;DHT22;55472;50.060;21.960;2022-07-23T05:36:49;23.80;70.20
68485;DHT22;55472;50.060;21.960;2022-07-23T05:39:15;23.90;70.20
68485;DHT22;55472;50.060;21.960;2022-07-23T05:41:41;24.00;69.10
68485;DHT22;55472;50.060;21.960;2022-07-23T05:44:07;24.10;68.60
68485;DHT22;55472;50.060;21.960;2022-07-23T05:46:33;24.10;68.60
68485;DHT22;55472;50.060;21.960;2022-07-23T05:48:59;24.20;68.70
68485;DHT22;55472;50.060;21.960;2022-07-23T05:51:25;24.20;69.10
68485;DHT22;55472;50.060;21.960;2022-07-23T05:53:51;24.30;69.50
68485;DHT22;55472;50.060;21.960;2022-07-23T05:56:19;24.40;67.90
68485;DHT22;55472;50.060;21.960;2022-07-23T05:58:45;24.50;67.80
68485;DHT22;55472;50.060;21.960;2022-07-23T06:01:11;24.60;68.30
68485;DHT22;55472;50.060;21.960;2022-07-23T06:03:40;24.70;67.80
68485;DHT22;55472;50.060;21.960;2022-07-23T06:06:06;24.80;67.30
68485;DHT22;55472;50.060;21.960;2022-07-23T06:08:32;24.90;67.00
68485;DHT22;55472;50.060;21.960;2022-07-23T06:10:58;25.00;66.80
68485;DHT22;55472;50.060;21.960;2022-07-23T06:13:24;25.10;67.00
68485;DHT22;55472;50.060;21.960;2022-07-23T06:15:50;25.20;66.90
68485;DHT22;55472;50.060;21.960;2022-07-23T06:18:16;25.40;67.10
68485;DHT22;55472;50.060;21.960;2022-07-23T06:20:42;25.50;66.90
68485;DHT22;55472;50.060;21.960;2022-07-23T06:23:08;25.60;66.30
68485;DHT22;55472;50.060;21.960;2022-07-23T06:25:34;25.70;65.60
68485;DHT22;55472;50.060;21.960;2022-07-23T06:28:00;25.80;65.70
68485;DHT22;55472;50.060;21.960;2022-07-23T06:30:26;25.90;66.00
68485;DHT22;55472;50.060;21.960;2022-07-23T06:32:52;26.00;65.60
68485;DHT22;55472;50.060;21.960;2022-07-23T06:35:18;26.10;65.10
68485;DHT22;55472;50.060;21.960;2022-07-23T06:37:43;26.30;65.20
68485;DHT22;55472;50.060;21.960;2022-07-23T06:40:10;26.40;64.80
68485;DHT22;55472;50.060;21.960;2022-07-23T06:42:36;26.50;65.40
68485;DHT22;55472;50.060;21.960;2022-07-23T06:45:05;26.60;65.30
68485;DHT22;55472;50.060;21.960;2022-07-23T06:47:32;26.60;65.10
68485;DHT22;55472;50.060;21.960;2022-07-23T06:49:58;26.70;65.30
68485;DHT22;55472;50.060;21.960;2022-07-23T06:52:24;26.80;65.30
68485;DHT22;55472;50.060;21.960;2022-07-23T06:54:52;26.90;64.60
68485;DHT22;55472;50.060;21.960;2022-07-23T06:57:18;27.00;63.80
68485;DHT22;55472;50.060;21.960;2022-07-23T06:59:44;27.20;62.90
68485;DHT22;55472;50.060;21.960;2022-07-23T07:02:10;27.30;63.50
68485;DHT22;55472;50.060;21.960;2022-07-23T07:04:37;27.50;62.30
68485;DHT22;55472;50.060;21.960;2022-07-23T07:07:03;27.60;61.60
68485;DHT22;55472;50.060;21.960;2022-07-23T07:09:29;27.80;61.90
68485;DHT22;55472;50.060;21.960;2022-07-23T07:11:55;27.90;61.10
68485;DHT22;55472;50.060;21.960;2022-07-23T07:14:22;28.10;60.50
68485;DHT22;55472;50.060;21.960;2022-07-23T07:16:48;28.30;59.90
68485;DHT22;55472;50.060;21.960;2022-07-23T07:19:14;28.40;60.00
68485;DHT22;55472;50.060;21.960;2022-07-23T07:21:40;28.60;60.30
68485;DHT22;55472;50.060;21.960;2022-07-23T07:24:06;28.80;59.30
68485;DHT22;55472;50.060;21.960;2022-07-23T07:26:32;29.00;58.60
68485;DHT22;55472;50.060;21.960;2022-07-23T07:28:58;29.20;58.30
68485;DHT22;55472;50.060;21.960;2022-07-23T07:31:24;29.30;58.00
68485;DHT22;55472;50.060;21.960;2022-07-23T07:33:50;29.50;57.60
68485;DHT22;55472;50.060;21.960;2022-07-23T07:36:16;29.60;56.40
68485;DHT22;55472;50.060;21.960;2022-07-23T07:38:42;29.80;56.20
68485;DHT22;55472;50.060;21.960;2022-07-23T07:41:08;29.90;55.80
68485;DHT22;55472;50.060;21.960;2022-07-23T07:43:36;30.00;55.60
68485;DHT22;55472;50.060;21.960;2022-07-23T07:46:03;30.20;56.10
68485;DHT22;55472;50.060;21.960;2022-07-23T07:48:29;30.30;55.60
68485;DHT22;55472;50.060;21.960;2022-07-23T07:50:55;30.50;54.10
68485;DHT22;55472;50.060;21.960;2022-07-23T07:53:21;30.60;52.90
68485;DHT22;55472;50.060;21.960;2022-07-23T07:55:47;30.70;53.80
68485;DHT22;55472;50.060;21.960;2022-07-23T07:58:13;30.80;54.10
68485;DHT22;55472;50.060;21.960;2022-07-23T08:00:39;31.00;53.40
68485;DHT22;55472;50.060;21.960;2022-07-23T08:03:05;31.10;53.70
68485;DHT22;55472;50.060;21.960;2022-07-23T08:05:31;31.20;52.90
68485;DHT22;55472;50.060;21.960;2022-07-23T08:07:58;31.40;52.80
68485;DHT22;55472;50.060;21.960;2022-07-23T08:10:26;31.60;52.30
68485;DHT22;55472;50.060;21.960;2022-07-23T08:12:55;31.80;51.00
68485;DHT22;55472;50.060;21.960;2022-07-23T08:15:27;31.90;50.30
68485;DHT22;55472;50.060;21.960;2022-07-23T08:17:54;32.00;49.60
68485;DHT22;55472;50.060;21.960;2022-07-23T08:20:22;32.20;49.70
68485;DHT22;55472;50.060;21.960;2022-07-23T08:22:57;32.40;48.80
68485;DHT22;55472;50.060;21.960;2022-07-23T08:25:27;32.60;48.70
68485;DHT22;55472;50.060;21.960;2022-07-23T08:27:54;32.80;48.50
68485;DHT22;55472;50.060;21.960;2022-07-23T08:30:21;33.00;48.30
68485;DHT22;55472;50.060;21.960;2022-07-23T08:32:49;33.10;47.90
68485;DHT22;55472;50.060;21.960;2022-07-23T08:35:16;33.30;47.40
68485;DHT22;55472;50.060;21.960;2022-07-23T08:37:42;33.50;46.90
68485;DHT22;55472;50.060;21.960;2022-07-23T08:40:09;33.60;46.60
68485;DHT22;55472;50.060;21.960;2022-07-23T08:42:35;33.80;46.60
68485;DHT22;55472;50.060;21.960;2022-07-23T08:45:02;33.90;46.90
68485;DHT22;55472;50.060;21.960;2022-07-23T08:47:29;34.00;45.30
68485;DHT22;55472;50.060;21.960;2022-07-23T08:49:58;34.10;45.30
68485;DHT22;55472;50.060;21.960;2022-07-23T08:52:25;34.30;44.60
68485;DHT22;55472;50.060;21.960;2022-07-23T08:54:52;34.50;44.80
68485;DHT22;55472;50.060;21.960;2022-07-23T08:57:18;34.70;43.70
68485;DHT22;55472;50.060;21.960;2022-07-23T08:59:44;34.90;43.80
68485;DHT22;55472;50.060;21.960;2022-07-23T09:02:12;35.30;43.00
68485;DHT22;55472;50.060;21.960;2022-07-23T09:04:38;35.70;40.30
68485;DHT22;55472;50.060;21.960;2022-07-23T09:07:04;36.20;39.90
68485;DHT22;55472;50.060;21.960;2022-07-23T09:09:30;37.10;39.30
68485;DHT22;55472;50.060;21.960;2022-07-23T09:12:09;38.30;37.10
68485;DHT22;55472;50.060;21.960;2022-07-23T09:14:40;39.50;35.70
68485;DHT22;55472;50.060;21.960;2022-07-23T09:17:15;40.70;34.30
68485;DHT22;55472;50.060;21.960;2022-07-23T09:19:43;41.60;31.40
68485;DHT22;55472;50.060;21.960;2022-07-23T09:22:24;42.20;30.40
68485;DHT22;55472;50.060;21.960;2022-07-23T09:25:11;43.20;29.20
68485;DHT22;55472;50.060;21.960;2022-07-23T09:27:57;44.30;28.30
68485;DHT22;55472;50.060;21.960;2022-07-23T09:30:27;45.50;27.50
68485;DHT22;55472;50.060;21.960;2022-07-23T09:35:52;47.20;26.60
68485;DHT22;55472;50.060;21.960;2022-07-23T09:38:20;48.00;26.30
68485;DHT22;55472;50.060;21.960;2022-07-23T09:41:08;48.50;25.60
68485;DHT22;55472;50.060;21.960;2022-07-23T09:43:35;49.10;25.10
68485;DHT22;55472;50.060;21.960;2022-07-23T09:46:37;49.60;25.10
68485;DHT22;55472;50.060;21.960;2022-07-23T09:49:22;50.30;24.60
68485;DHT22;55472;50.060;21.960;2022-07-23T09:51:54;50.60;24.70
68485;DHT22;55472;50.060;21.960;2022-07-23T09:57:09;48.60;25.70
68485;DHT22;55472;50.060;21.960;2022-07-23T09:59:44;47.70;26.50
68485;DHT22;55472;50.060;21.960;2022-07-23T10:02:12;46.80;27.20
68485;DHT22;55472;50.060;21.960;2022-07-23T10:04:40;45.80;28.00
68485;DHT22;55472;50.060;21.960;2022-07-23T10:07:08;44.20;29.40
68485;DHT22;55472;50.060;21.960;2022-07-23T10:09:38;43.50;30.30
68485;DHT22;55472;50.060;21.960;2022-07-23T10:12:12;43.50;30.40
68485;DHT22;55472;50.060;21.960;2022-07-23T10:15:00;44.00;30.00
68485;DHT22;55472;50.060;21.960;2022-07-23T10:17:28;44.00;29.30
68485;DHT22;55472;50.060;21.960;2022-07-23T10:19:54;43.50;30.30
68485;DHT22;55472;50.060;21.960;2022-07-23T10:22:26;43.30;30.50
68485;DHT22;55472;50.060;21.960;2022-07-23T10:25:27;42.90;29.70
68485;DHT22;55472;50.060;21.960;2022-07-23T10:31:41;42.00;31.00
68485;DHT22;55472;50.060;21.960;2022-07-23T10:34:43;41.70;31.40
68485;DHT22;55472;50.060;21.960;2022-07-23T10:37:17;40.90;31.50
68485;DHT22;55472;50.060;21.960;2022-07-23T10:40:21;38.60;33.10
68485;DHT22;55472;50.060;21.960;2022-07-23T10:42:50;38.40;33.60
68485;DHT22;55472;50.060;21.960;2022-07-23T10:45:31;38.70;34.20
68485;DHT22;55472;50.060;21.960;2022-07-23T10:48:15;39.20;34.00
68485;DHT22;55472;50.060;21.960;2022-07-23T10:50:44;39.80;33.20
68485;DHT22;55472;50.060;21.960;2022-07-23T10:56:49;40.60;31.80
68485;DHT22;55472;50.060;21.960;2022-07-23T10:59:16;40.70;30.90
68485;DHT22;55472;50.060;21.960;2022-07-23T11:01:42;40.40;31.40
68485;DHT22;55472;50.060;21.960;2022-07-23T11:04:08;39.80;32.80
68485;DHT22;55472;50.060;21.960;2022-07-23T11:09:38;38.70;33.70
68485;DHT22;55472;50.060;21.960;2022-07-23T11:25:05;37.00;36.70
68485;DHT22;55472;50.060;21.960;2022-07-23T11:27:44;37.30;35.30
68485;DHT22;55472;50.060;21.960;2022-07-23T11:35:41;36.60;36.50
68485;DHT22;55472;50.060;21.960;2022-07-23T11:38:22;36.90;36.60
68485;DHT22;55472;50.060;21.960;2022-07-23T11:40:50;37.00;36.00
68485;DHT22;55472;50.060;21.960;2022-07-23T11:43:18;37.10;37.10
68485;DHT22;55472;50.060;21.960;2022-07-23T11:45:50;37.30;35.60
68485;DHT22;55472;50.060;21.960;2022-07-23T11:48:22;37.60;34.50
68485;DHT22;55472;50.060;21.960;2022-07-23T11:50:50;37.70;34.80
68485;DHT22;55472;50.060;21.960;2022-07-23T11:53:25;37.70;34.50
68485;DHT22;55472;50.060;21.960;2022-07-23T11:56:03;37.80;35.00
68485;DHT22;55472;50.060;21.960;2022-07-23T11:58:33;37.90;35.00
68485;DHT22;55472;50.060;21.960;2022-07-23T12:00:59;38.00;34.90
68485;DHT22;55472;50.060;21.960;2022-07-23T12:03:25;38.10;34.40
68485;DHT22;55472;50.060;21.960;2022-07-23T12:05:56;38.20;33.20
68485;DHT22;55472;50.060;21.960;2022-07-23T12:08:23;38.10;32.70
68485;DHT22;55472;50.060;21.960;2022-07-23T12:10:49;38.00;33.30
68485;DHT22;55472;50.060;21.960;2022-07-23T12:13:17;38.00;32.80
68485;DHT22;55472;50.060;21.960;2022-07-23T12:15:50;38.00;33.40
68485;DHT22;55472;50.060;21.960;2022-07-23T12:18:20;38.00;33.70
68485;DHT22;55472;50.060;21.960;2022-07-23T12:20:53;37.90;34.00
68485;DHT22;55472;50.060;21.960;2022-07-23T12:23:23;37.30;35.20
68485;DHT22;55472;50.060;21.960;2022-07-23T12:25:52;37.40;34.30
68485;DHT22;55472;50.060;21.960;2022-07-23T12:28:28;37.30;34.10
68485;DHT22;55472;50.060;21.960;2022-07-23T12:30:56;37.20;34.30
68485;DHT22;55472;50.060;21.960;2022-07-23T12:33:28;37.10;34.70
68485;DHT22;55472;50.060;21.960;2022-07-23T12:36:06;37.10;34.80
68485;DHT22;55472;50.060;21.960;2022-07-23T12:41:14;37.00;35.10
68485;DHT22;55472;50.060;21.960;2022-07-23T12:43:43;36.90;35.60
68485;DHT22;55472;50.060;21.960;2022-07-23T12:46:15;36.50;35.60
68485;DHT22;55472;50.060;21.960;2022-07-23T12:51:30;35.60;37.20
68485;DHT22;55472;50.060;21.960;2022-07-23T12:53:59;35.60;37.60
68485;DHT22;55472;50.060;21.960;2022-07-23T12:56:31;35.70;37.90
68485;DHT22;55472;50.060;21.960;2022-07-23T13:01:38;35.70;38.00
68485;DHT22;55472;50.060;21.960;2022-07-23T13:04:20;35.70;37.50
68485;DHT22;55472;50.060;21.960;2022-07-23T13:06:48;35.60;37.90
68485;DHT22;55472;50.060;21.960;2022-07-23T13:09:19;35.30;37.30
68485;DHT22;55472;50.060;21.960;2022-07-23T13:11:46;35.10;37.60
68485;DHT22;55472;50.060;21.960;2022-07-23T13:14:14;34.90;38.40
68485;DHT22;55472;50.060;21.960;2022-07-23T13:16:42;34.90;38.60
68485;DHT22;55472;50.060;21.960;2022-07-23T13:19:08;35.10;38.70
68485;DHT22;55472;50.060;21.960;2022-07-23T13:21:35;35.20;37.90
68485;DHT22;55472;50.060;21.960;2022-07-23T13:24:01;35.30;36.70
68485;DHT22;55472;50.060;21.960;2022-07-23T13:26:27;35.30;37.10
68485;DHT22;55472;50.060;21.960;2022-07-23T13:28:53;35.40;37.80
68485;DHT22;55472;50.060;21.960;2022-07-23T13:31:20;35.50;37.20
68485;DHT22;55472;50.060;21.960;2022-07-23T13:33:46;35.60;36.90
68485;DHT22;55472;50.060;21.960;2022-07-23T13:36:12;35.70;37.30
68485;DHT22;55472;50.060;21.960;2022-07-23T13:38:39;35.70;36.80
68485;DHT22;55472;50.060;21.960;2022-07-23T13:41:05;35.80;36.80
68485;DHT22;55472;50.060;21.960;2022-07-23T13:43:32;35.80;36.60
68485;DHT22;55472;50.060;21.960;2022-07-23T13:45:58;35.80;37.00
68485;DHT22;55472;50.060;21.960;2022-07-23T13:48:24;35.80;36.60
68485;DHT22;55472;50.060;21.960;2022-07-23T13:50:51;35.80;36.70
68485;DHT22;55472;50.060;21.960;2022-07-23T13:53:20;35.80;37.30
68485;DHT22;55472;50.060;21.960;2022-07-23T13:55:49;35.80;35.60
68485;DHT22;55472;50.060;21.960;2022-07-23T13:58:16;35.80;35.70
68485;DHT22;55472;50.060;21.960;2022-07-23T14:00:49;35.80;35.60
68485;DHT22;55472;50.060;21.960;2022-07-23T14:03:17;35.70;35.70
68485;DHT22;55472;50.060;21.960;2022-07-23T14:05:43;35.70;36.60
68485;DHT22;55472;50.060;21.960;2022-07-23T14:08:10;35.70;36.50
68485;DHT22;55472;50.060;21.960;2022-07-23T14:10:36;35.80;36.70
68485;DHT22;55472;50.060;21.960;2022-07-23T14:13:03;35.70;36.60
68485;DHT22;55472;50.060;21.960;2022-07-23T14:15:30;35.70;35.90
68485;DHT22;55472;50.060;21.960;2022-07-23T14:17:57;35.70;35.70
68485;DHT22;55472;50.060;21.960;2022-07-23T14:20:24;35.70;35.70
68485;DHT22;55472;50.060;21.960;2022-07-23T14:22:51;35.60;36.80
68485;DHT22;55472;50.060;21.960;2022-07-23T14:25:17;35.60;36.50
68485;DHT22;55472;50.060;21.960;2022-07-23T14:27:44;35.60;36.20
68485;DHT22;55472;50.060;21.960;2022-07-23T14:30:11;35.50;36.40
68485;DHT22;55472;50.060;21.960;2022-07-23T14:32:38;35.50;36.00
68485;DHT22;55472;50.060;21.960;2022-07-23T14:35:05;35.40;35.80
68485;DHT22;55472;50.060;21.960;2022-07-23T14:37:31;35.20;36.60
68485;DHT22;55472;50.060;21.960;2022-07-23T14:39:58;35.00;36.40
68485;DHT22;55472;50.060;21.960;2022-07-23T14:42:28;34.90;36.60
68485;DHT22;55472;50.060;21.960;2022-07-23T14:44:54;34.90;37.20
68485;DHT22;55472;50.060;21.960;2022-07-23T14:47:19;35.00;37.60
68485;DHT22;55472;50.060;21.960;2022-07-23T14:49:46;35.00;38.10
68485;DHT22;55472;50.060;21.960;2022-07-23T14:52:11;35.00;37.60
68485;DHT22;55472;50.060;21.960;2022-07-23T14:54:37;35.00;37.20
68485;DHT22;55472;50.060;21.960;2022-07-23T14:57:04;34.90;37.30
68485;DHT22;55472;50.060;21.960;2022-07-23T14:59:30;34.70;37.20
68485;DHT22;55472;50.060;21.960;2022-07-23T15:01:57;34.50;37.00
68485;DHT22;55472;50.060;21.960;2022-07-23T15:04:24;34.40;37.70
68485;DHT22;55472;50.060;21.960;2022-07-23T15:06:50;34.50;38.80
68485;DHT22;55472;50.060;21.960;2022-07-23T15:09:16;34.50;39.10
68485;DHT22;55472;50.060;21.960;2022-07-23T15:11:42;34.50;39.30
68485;DHT22;55472;50.060;21.960;2022-07-23T15:14:08;34.60;38.90
68485;DHT22;55472;50.060;21.960;2022-07-23T15:16:34;34.60;39.20
68485;DHT22;55472;50.060;21.960;2022-07-23T15:19:02;34.60;39.20
68485;DHT22;55472;50.060;21.960;2022-07-23T15:21:29;34.60;39.80
68485;DHT22;55472;50.060;21.960;2022-07-23T15:23:55;34.60;40.20
68485;DHT22;55472;50.060;21.960;2022-07-23T15:26:25;34.50;40.00
68485;DHT22;55472;50.060;21.960;2022-07-23T15:28:52;34.40;40.20
68485;DHT22;55472;50.060;21.960;2022-07-23T15:31:18;34.40;40.40
68485;DHT22;55472;50.060;21.960;2022-07-23T15:33:44;34.40;40.80
68485;DHT22;55472;50.060;21.960;2022-07-23T15:36:10;34.40;40.20
68485;DHT22;55472;50.060;21.960;2022-07-23T15:38:36;34.30;39.70
68485;DHT22;55472;50.060;21.960;2022-07-23T15:41:02;34.30;40.20
68485;DHT22;55472;50.060;21.960;2022-07-23T15:43:29;34.20;41.40
68485;DHT22;55472;50.060;21.960;2022-07-23T15:45:56;34.20;41.70
68485;DHT22;55472;50.060;21.960;2022-07-23T15:48:22;34.10;41.80
68485;DHT22;55472;50.060;21.960;2022-07-23T15:50:48;33.90;42.40
68485;DHT22;55472;50.060;21.960;2022-07-23T15:53:14;33.90;42.90
68485;DHT22;55472;50.060;21.960;2022-07-23T15:55:40;33.80;44.00
68485;DHT22;55472;50.060;21.960;2022-07-23T15:58:06;33.70;44.20
68485;DHT22;55472;50.060;21.960;2022-07-23T16:00:33;33.60;44.60
68485;DHT22;55472;50.060;21.960;2022-07-23T16:02:59;33.60;44.70